createdAt,value
2019-03-31T00:01:54.981Z,26.77
2019-03-31T00:04:26.278Z,31.80
2019-03-31T00:06:57.536Z,26.68
2019-03-31T00:09:29.460Z,24.70
2019-03-31T00:12:00.716Z,23.70
2019-03-31T00:14:31.755Z,22.48
2019-03-31T00:17:03.026Z,21.57
2019-03-31T00:19:34.007Z,26.30
2019-03-31T00:22:05.062Z,25.12
2019-03-31T00:24:36.040Z,26.73
2019-03-31T00:27:07.119Z,27.82
2019-03-31T00:29:38.120Z,25.50
2019-03-31T00:32:09.840Z,25.43
2019-03-31T00:34:40.771Z,30.02
2019-03-31T00:37:11.731Z,26.55
2019-03-31T00:39:42.595Z,24.23
2019-03-31T00:42:13.539Z,24.85
2019-03-31T00:44:44.622Z,30.52
2019-03-31T00:47:15.565Z,26.80
2019-03-31T00:49:46.515Z,25.85
2019-03-31T00:52:17.562Z,28.42
2019-03-31T00:54:49.245Z,27.55
2019-03-31T00:57:20.927Z,26.50
2019-03-31T00:59:55.437Z,30.27
2019-03-31T01:02:29.930Z,29.02
2019-03-31T01:05:01.236Z,29.60
2019-03-31T01:07:33.807Z,30.08
2019-03-31T01:10:05.845Z,27.75
2019-03-31T01:12:37.403Z,22.50
2019-03-31T01:15:14.716Z,27.52
2019-03-31T01:17:45.731Z,29.25
2019-03-31T01:20:17.800Z,22.98
2019-03-31T01:22:48.855Z,27.22
2019-03-31T01:25:20.791Z,28.55
2019-03-31T01:27:51.724Z,28.50
2019-03-31T01:30:23.054Z,25.32
2019-03-31T01:32:55.376Z,27.77
2019-03-31T01:35:26.428Z,32.73
2019-03-31T01:37:57.382Z,28.60
2019-03-31T01:40:28.340Z,31.02
2019-03-31T01:42:59.359Z,25.68
2019-03-31T01:45:30.389Z,24.30
2019-03-31T01:48:01.468Z,28.00
2019-03-31T01:50:33.211Z,25.37
2019-03-31T01:53:04.297Z,31.20
2019-03-31T01:55:35.240Z,30.00
2019-03-31T01:58:06.503Z,31.10
2019-03-31T02:00:42.799Z,32.05
2019-03-31T02:03:13.796Z,26.10
2019-03-31T02:05:44.821Z,26.02
2019-03-31T02:08:15.724Z,27.25
2019-03-31T02:10:46.678Z,28.12
2019-03-31T02:13:17.536Z,27.07
2019-03-31T02:15:48.518Z,25.12
2019-03-31T02:18:19.511Z,27.65
2019-03-31T02:20:50.706Z,25.15
2019-03-31T02:23:21.565Z,27.30
2019-03-31T02:25:52.739Z,25.27
2019-03-31T02:28:23.758Z,24.45
2019-03-31T02:30:54.664Z,21.25
2019-03-31T02:33:25.735Z,24.55
2019-03-31T02:35:56.576Z,20.15
2019-03-31T02:38:27.426Z,23.12
2019-03-31T02:40:58.478Z,22.50
2019-03-31T02:43:29.435Z,18.85
2019-03-31T02:46:00.416Z,18.45
2019-03-31T02:48:31.416Z,18.75
2019-03-31T02:51:02.481Z,23.07
2019-03-31T02:53:33.607Z,18.67
2019-03-31T02:56:04.909Z,23.27
2019-03-31T02:58:37.451Z,21.85
2019-03-31T03:01:09.139Z,20.40
2019-03-31T03:03:40.721Z,15.20
2019-03-31T03:06:14.195Z,20.12
2019-03-31T03:08:49.448Z,18.45
2019-03-31T03:11:22.765Z,16.77
2019-03-31T03:13:55.832Z,16.90
2019-03-31T03:16:26.859Z,15.75
2019-03-31T03:18:58.268Z,15.80
2019-03-31T03:21:29.147Z,17.87
2019-03-31T03:24:00.001Z,15.28
2019-03-31T03:26:30.943Z,15.15
2019-03-31T03:29:02.127Z,16.73
2019-03-31T03:31:33.745Z,12.53
2019-03-31T03:34:04.865Z,8.13
2019-03-31T03:36:35.995Z,9.55
2019-03-31T03:39:08.241Z,10.18
2019-03-31T03:41:39.155Z,10.48
2019-03-31T03:44:10.162Z,9.48
2019-03-31T03:46:41.108Z,9.93
2019-03-31T03:49:12.156Z,12.43
2019-03-31T03:51:43.339Z,8.98
2019-03-31T03:54:14.234Z,11.45
2019-03-31T03:56:45.180Z,10.03
2019-03-31T03:59:16.315Z,7.30
2019-03-31T04:01:47.370Z,8.25
2019-03-31T04:04:18.582Z,12.37
2019-03-31T04:06:57.748Z,6.92
2019-03-31T04:09:28.651Z,6.60
2019-03-31T04:11:59.904Z,11.35
2019-03-31T04:14:30.903Z,6.10
2019-03-31T04:17:01.864Z,6.75
2019-03-31T04:19:32.684Z,8.20
2019-03-31T04:22:03.889Z,6.97
2019-03-31T04:24:34.819Z,5.33
2019-03-31T04:27:05.783Z,6.55
2019-03-31T04:29:37.647Z,5.40
2019-03-31T04:32:08.523Z,7.40
2019-03-31T04:34:39.488Z,8.80
2019-03-31T04:37:10.428Z,6.60
2019-03-31T04:39:41.377Z,6.05
2019-03-31T04:42:12.326Z,6.78
2019-03-31T04:44:43.724Z,5.58
2019-03-31T04:47:14.592Z,3.52
2019-03-31T04:49:45.527Z,3.25
2019-03-31T04:52:16.487Z,5.58
2019-03-31T04:54:47.426Z,4.95
2019-03-31T04:57:18.387Z,8.30
2019-03-31T04:59:49.671Z,5.17
2019-03-31T05:02:21.331Z,3.33
2019-03-31T05:04:52.235Z,4.87
2019-03-31T05:07:23.154Z,5.67
2019-03-31T05:09:54.091Z,7.90
2019-03-31T05:12:25.071Z,5.58
2019-03-31T05:14:55.887Z,5.75
2019-03-31T05:17:26.759Z,9.38
2019-03-31T05:19:57.600Z,5.33
2019-03-31T05:22:28.899Z,5.12
2019-03-31T05:25:00.760Z,4.35
2019-03-31T05:27:31.733Z,5.05
2019-03-31T05:30:02.619Z,7.53
2019-03-31T05:32:34.195Z,5.08
2019-03-31T05:35:05.173Z,2.77
2019-03-31T05:37:50.274Z,8.15
2019-03-31T05:40:10.160Z,6.35
2019-03-31T05:42:41.181Z,9.88
2019-03-31T05:45:12.253Z,4.72
2019-03-31T05:47:43.166Z,7.03
2019-03-31T05:50:14.110Z,8.95
2019-03-31T05:52:45.094Z,10.80
2019-03-31T05:55:18.886Z,6.67
2019-03-31T05:57:49.072Z,8.63
2019-03-31T06:00:30.688Z,10.25
2019-03-31T06:03:01.577Z,9.08
2019-03-31T06:05:32.428Z,8.18
2019-03-31T06:08:03.421Z,8.23
2019-03-31T06:10:34.353Z,10.10
2019-03-31T06:13:05.282Z,11.38
2019-03-31T06:15:36.183Z,12.23
2019-03-31T06:18:07.168Z,9.80
2019-03-31T06:20:38.147Z,8.35
2019-03-31T06:23:09.038Z,8.78
2019-03-31T06:25:39.996Z,11.18
2019-03-31T06:28:10.895Z,7.42
2019-03-31T06:30:41.806Z,9.68
2019-03-31T06:33:13.267Z,8.70
2019-03-31T06:35:44.288Z,6.25
2019-03-31T06:38:16.008Z,10.08
2019-03-31T06:40:49.446Z,11.95
2019-03-31T06:43:21.078Z,9.80
2019-03-31T06:45:52.647Z,8.33
2019-03-31T06:48:23.522Z,8.93
2019-03-31T06:50:54.774Z,11.65
2019-03-31T06:53:27.605Z,12.47
2019-03-31T06:55:58.371Z,9.00
2019-03-31T06:58:29.643Z,11.57
2019-03-31T07:01:00.551Z,7.75
2019-03-31T07:03:31.521Z,8.93
2019-03-31T07:06:02.530Z,12.88
2019-03-31T07:08:33.551Z,10.95
2019-03-31T07:11:04.385Z,9.48
2019-03-31T07:13:35.233Z,12.82
2019-03-31T07:16:06.292Z,10.00
2019-03-31T07:18:37.521Z,8.35
2019-03-31T07:21:08.713Z,10.65
2019-03-31T07:23:40.750Z,12.33
2019-03-31T07:26:11.703Z,9.20
2019-03-31T07:28:42.623Z,8.40
2019-03-31T07:31:13.552Z,6.85
2019-03-31T07:33:44.547Z,7.90
2019-03-31T07:36:15.486Z,11.33
2019-03-31T07:38:46.912Z,10.48
2019-03-31T07:41:18.459Z,13.00
2019-03-31T07:43:49.484Z,9.00
2019-03-31T07:46:20.797Z,7.80
2019-03-31T07:48:51.690Z,6.35
2019-03-31T07:51:22.653Z,7.00
2019-03-31T07:53:53.530Z,7.25
2019-03-31T07:56:24.406Z,6.78
2019-03-31T07:58:55.425Z,10.48
2019-03-31T08:01:27.425Z,9.13
2019-03-31T08:03:58.967Z,9.35
2019-03-31T08:06:29.866Z,9.45
2019-03-31T08:09:00.794Z,10.15
2019-03-31T08:11:33.685Z,7.28
2019-03-31T08:14:04.910Z,9.20
2019-03-31T08:16:48.085Z,9.30
2019-03-31T08:19:20.987Z,10.28
2019-03-31T08:21:52.019Z,7.80
2019-03-31T08:24:23.739Z,8.55
2019-03-31T08:26:54.679Z,8.03
2019-03-31T08:29:25.703Z,10.25
2019-03-31T08:31:56.703Z,8.38
2019-03-31T08:34:27.663Z,8.33
2019-03-31T08:37:02.378Z,7.60
2019-03-31T08:39:34.362Z,9.00
2019-03-31T08:42:05.295Z,9.60
2019-03-31T08:44:36.187Z,6.53
2019-03-31T08:47:08.977Z,9.53
2019-03-31T08:49:40.270Z,8.03
2019-03-31T08:52:11.216Z,7.85
2019-03-31T08:54:42.066Z,7.95
2019-03-31T08:57:13.018Z,9.38
2019-03-31T08:59:43.975Z,5.85
2019-03-31T09:02:27.661Z,8.25
2019-03-31T09:04:58.671Z,8.85
2019-03-31T09:07:29.640Z,8.88
2019-03-31T09:10:00.522Z,10.15
2019-03-31T09:12:31.560Z,6.95
2019-03-31T09:15:02.455Z,6.40
2019-03-31T09:17:34.899Z,9.45
2019-03-31T09:20:06.918Z,6.17
2019-03-31T09:22:37.915Z,6.62
2019-03-31T09:25:08.884Z,6.97
2019-03-31T09:27:39.812Z,7.53
2019-03-31T09:30:11.699Z,6.35
2019-03-31T09:32:42.691Z,8.23
2019-03-31T09:35:14.367Z,8.58
2019-03-31T09:37:45.192Z,9.33
2019-03-31T09:40:17.580Z,7.25
2019-03-31T09:42:48.476Z,10.10
2019-03-31T09:45:19.663Z,10.30
2019-03-31T09:47:50.631Z,9.13
2019-03-31T09:50:21.896Z,12.45
2019-03-31T09:52:52.798Z,12.63
2019-03-31T09:55:23.908Z,12.18
2019-03-31T09:57:54.859Z,5.35
2019-03-31T10:00:46.143Z,10.32
2019-03-31T10:03:17.518Z,9.90
2019-03-31T10:05:48.879Z,6.78
2019-03-31T10:08:21.967Z,12.53
2019-03-31T10:10:52.929Z,8.58
2019-03-31T10:13:23.852Z,12.53
2019-03-31T10:15:54.820Z,9.50
2019-03-31T10:18:25.771Z,9.08
2019-03-31T10:20:56.754Z,8.33
2019-03-31T10:23:27.685Z,8.80
2019-03-31T10:25:58.559Z,7.97
2019-03-31T10:28:29.499Z,7.55
2019-03-31T10:31:01.398Z,6.37
2019-03-31T10:33:32.968Z,8.53
2019-03-31T10:36:04.085Z,5.83
2019-03-31T10:38:35.899Z,9.55
2019-03-31T10:41:08.543Z,6.28
2019-03-31T10:43:39.415Z,8.85
2019-03-31T10:46:10.651Z,7.62
2019-03-31T10:48:43.519Z,5.47
2019-03-31T10:51:14.540Z,7.40
2019-03-31T10:53:45.443Z,8.05
2019-03-31T10:56:16.351Z,4.03
2019-03-31T10:58:47.448Z,4.20
2019-03-31T11:01:18.467Z,8.40
2019-03-31T11:03:49.462Z,8.75
2019-03-31T11:06:20.482Z,6.87
2019-03-31T11:08:51.367Z,4.97
2019-03-31T11:11:22.171Z,8.28
2019-03-31T11:13:53.077Z,7.20
2019-03-31T11:16:24.032Z,7.45
2019-03-31T11:18:54.975Z,6.95
2019-03-31T11:21:40.293Z,6.95
2019-03-31T11:24:09.988Z,10.48
2019-03-31T11:26:40.874Z,8.63
2019-03-31T11:29:11.811Z,8.78
2019-03-31T11:31:42.772Z,7.90
2019-03-31T11:34:13.733Z,11.05
2019-03-31T11:36:44.999Z,7.62
2019-03-31T11:39:17.405Z,6.45
2019-03-31T11:41:48.495Z,5.85
2019-03-31T11:44:19.362Z,6.90
2019-03-31T11:46:50.425Z,7.25
2019-03-31T11:49:21.820Z,7.42
2019-03-31T11:51:52.670Z,7.58
2019-03-31T11:54:25.054Z,6.60
2019-03-31T11:56:56.086Z,6.78
2019-03-31T11:59:27.207Z,6.33
2019-03-31T12:01:58.214Z,7.53
2019-03-31T12:04:29.185Z,6.60
2019-03-31T12:07:00.067Z,6.30
2019-03-31T12:09:30.997Z,5.87
2019-03-31T12:12:01.863Z,4.37
2019-03-31T12:14:32.811Z,5.05
2019-03-31T12:17:03.859Z,6.03
2019-03-31T12:19:34.744Z,5.03
2019-03-31T12:22:06.838Z,5.47
2019-03-31T12:24:38.276Z,6.95
2019-03-31T12:27:09.203Z,4.78
2019-03-31T12:29:40.196Z,4.28
2019-03-31T12:32:11.666Z,6.70
2019-03-31T12:34:42.518Z,6.42
2019-03-31T12:37:13.378Z,4.67
2019-03-31T12:39:44.470Z,4.87
2019-03-31T12:42:15.413Z,5.62
2019-03-31T12:44:46.399Z,5.05
2019-03-31T12:47:19.506Z,6.87
2019-03-31T12:49:50.524Z,6.20
2019-03-31T12:52:21.598Z,5.50
2019-03-31T12:54:52.506Z,5.12
2019-03-31T12:57:23.567Z,7.00
2019-03-31T12:59:54.667Z,7.30
2019-03-31T13:02:25.506Z,6.72
2019-03-31T13:04:56.341Z,7.90
2019-03-31T13:07:27.587Z,7.62
2019-03-31T13:09:58.486Z,6.80
2019-03-31T13:12:29.443Z,5.70
2019-03-31T13:15:00.692Z,7.95
2019-03-31T13:17:31.567Z,5.90
2019-03-31T13:20:02.596Z,6.58
2019-03-31T13:22:34.662Z,4.97
2019-03-31T13:25:06.177Z,6.53
2019-03-31T13:27:37.131Z,4.65
2019-03-31T13:30:08.641Z,5.03
2019-03-31T13:32:39.547Z,7.55
2019-03-31T13:35:11.023Z,6.08
2019-03-31T13:37:41.970Z,5.47
2019-03-31T13:40:13.495Z,5.58
2019-03-31T13:42:45.600Z,5.00
2019-03-31T13:45:16.630Z,5.60
2019-03-31T13:47:47.935Z,5.72
2019-03-31T13:50:18.879Z,10.48
2019-03-31T13:52:49.755Z,3.52
2019-03-31T13:55:20.783Z,7.33
2019-03-31T13:57:52.687Z,4.30
2019-03-31T14:00:44.393Z,6.90
2019-03-31T14:03:24.918Z,5.08
2019-03-31T14:05:57.583Z,7.00
2019-03-31T14:08:28.504Z,6.78
2019-03-31T14:10:59.392Z,3.92
2019-03-31T14:13:30.455Z,2.00
2019-03-31T14:16:01.416Z,8.43
2019-03-31T14:18:33.308Z,4.45
2019-03-31T14:21:04.845Z,6.80
2019-03-31T14:23:36.027Z,3.60
2019-03-31T14:26:07.292Z,5.35
2019-03-31T14:28:38.519Z,4.25
2019-03-31T14:31:09.594Z,4.87
2019-03-31T14:33:40.795Z,5.10
2019-03-31T14:36:11.840Z,5.00
2019-03-31T14:38:44.547Z,4.90
2019-03-31T14:41:15.894Z,4.45
2019-03-31T14:43:46.861Z,3.67
2019-03-31T14:46:19.639Z,6.17
2019-03-31T14:48:52.782Z,3.50
2019-03-31T14:51:24.402Z,7.12
2019-03-31T14:53:55.312Z,4.67
2019-03-31T14:56:26.248Z,5.17
2019-03-31T14:58:57.217Z,4.35
2019-03-31T15:01:28.451Z,4.20
2019-03-31T15:03:59.614Z,2.85
2019-03-31T15:06:30.616Z,4.65
2019-03-31T15:09:01.936Z,4.12
2019-03-31T15:11:33.506Z,5.45
2019-03-31T15:14:04.623Z,6.22
2019-03-31T15:16:35.552Z,4.78
2019-03-31T15:19:06.525Z,6.85
2019-03-31T15:21:44.012Z,5.90
2019-03-31T15:24:10.800Z,5.67
2019-03-31T15:26:41.746Z,6.37
2019-03-31T15:29:13.382Z,7.20
2019-03-31T15:31:44.407Z,5.22
2019-03-31T15:34:15.719Z,6.85
2019-03-31T15:36:46.971Z,7.05
2019-03-31T15:39:17.907Z,7.62
2019-03-31T15:41:48.902Z,4.83
2019-03-31T15:44:19.967Z,6.12
2019-03-31T15:46:50.858Z,6.53
2019-03-31T15:49:22.117Z,6.22
2019-03-31T15:51:53.014Z,7.95
2019-03-31T15:54:23.995Z,8.70
2019-03-31T15:56:54.931Z,5.50
2019-03-31T15:59:25.787Z,8.70
2019-03-31T16:01:56.631Z,5.15
2019-03-31T16:04:28.718Z,6.22
2019-03-31T16:06:59.874Z,6.17
2019-03-31T16:09:30.319Z,6.80
2019-03-31T16:12:00.952Z,8.18
2019-03-31T16:14:31.290Z,10.00
2019-03-31T16:17:01.680Z,8.13
2019-03-31T16:19:32.182Z,7.80
2019-03-31T16:22:02.681Z,9.28
2019-03-31T16:24:42.659Z,5.62
2019-03-31T16:27:13.177Z,7.78
2019-03-31T16:29:44.610Z,5.37
2019-03-31T16:32:14.962Z,7.50
2019-03-31T16:34:45.302Z,6.42
2019-03-31T16:37:15.727Z,8.95
2019-03-31T16:39:46.197Z,6.37
2019-03-31T16:42:16.679Z,8.60
2019-03-31T16:44:57.510Z,5.08
2019-03-31T16:47:19.094Z,6.45
2019-03-31T16:49:49.701Z,7.95
2019-03-31T16:52:20.051Z,9.58
2019-03-31T16:54:53.391Z,7.37
2019-03-31T16:57:25.335Z,8.45
2019-03-31T16:59:55.688Z,9.20
2019-03-31T17:02:26.030Z,7.08
2019-03-31T17:04:56.471Z,7.90
2019-03-31T17:07:27.491Z,5.70
2019-03-31T17:09:57.870Z,6.60
2019-03-31T17:12:28.952Z,8.50
2019-03-31T17:15:00.258Z,6.80
2019-03-31T17:17:30.747Z,6.40
2019-03-31T17:20:02.978Z,7.35
2019-03-31T17:22:33.458Z,5.72
2019-03-31T17:25:07.025Z,7.65
2019-03-31T17:27:37.402Z,9.00
2019-03-31T17:30:08.346Z,4.67
2019-03-31T17:32:38.743Z,6.70
2019-03-31T17:35:09.344Z,4.42
2019-03-31T17:37:39.774Z,8.18
2019-03-31T17:40:10.364Z,7.28
2019-03-31T17:42:40.730Z,4.80
2019-03-31T17:45:11.534Z,7.25
2019-03-31T17:47:41.988Z,7.70
2019-03-31T17:50:14.086Z,7.30
2019-03-31T17:52:44.452Z,7.45
2019-03-31T17:55:14.811Z,4.40
2019-03-31T17:57:45.080Z,8.05
2019-03-31T18:00:15.639Z,7.72
2019-03-31T18:02:47.012Z,6.20
2019-03-31T18:05:19.371Z,7.78
2019-03-31T18:07:49.687Z,7.80
2019-03-31T18:10:21.553Z,8.00
2019-03-31T18:12:52.557Z,6.25
2019-03-31T18:15:22.962Z,9.00
2019-03-31T18:17:53.417Z,7.95
2019-03-31T18:20:24.104Z,6.70
2019-03-31T18:22:54.343Z,9.45
2019-03-31T18:25:24.760Z,3.55
2019-03-31T18:27:55.263Z,5.65
2019-03-31T18:30:28.325Z,6.22
2019-03-31T18:32:58.711Z,6.30
2019-03-31T18:35:29.161Z,8.43
2019-03-31T18:37:59.530Z,9.73
2019-03-31T18:40:35.423Z,7.45
2019-03-31T18:43:02.670Z,15.08
2019-03-31T18:45:33.149Z,11.08
2019-03-31T18:48:03.447Z,7.55
2019-03-31T18:50:35.199Z,7.83
2019-03-31T18:53:06.756Z,7.40
2019-03-31T18:55:53.891Z,6.85
2019-03-31T18:58:29.923Z,8.00
2019-03-31T19:01:07.387Z,8.45
2019-03-31T19:03:55.874Z,10.18
2019-03-31T19:06:45.559Z,7.53
2019-03-31T19:09:33.708Z,12.18
2019-03-31T19:12:16.284Z,7.40
2019-03-31T19:15:05.815Z,5.95
2019-03-31T19:18:01.574Z,8.53
2019-03-31T19:21:10.684Z,8.58
2019-03-31T19:23:54.711Z,10.00
2019-03-31T19:26:48.973Z,8.18
2019-03-31T19:29:37.348Z,7.85
2019-03-31T19:32:45.191Z,9.93
2019-03-31T19:35:53.198Z,8.30
2019-03-31T19:38:33.959Z,10.90
2019-03-31T19:41:22.507Z,8.58
2019-03-31T19:44:21.050Z,8.68
2019-03-31T19:47:03.291Z,9.88
2019-03-31T19:49:58.915Z,8.50
2019-03-31T19:52:46.527Z,9.18
2019-03-31T19:55:34.947Z,10.90
2019-03-31T19:58:33.361Z,11.05
2019-03-31T20:01:20.564Z,10.43
2019-03-31T20:04:08.620Z,12.18
2019-03-31T20:06:57.399Z,9.08
2019-03-31T20:09:45.669Z,7.40
2019-03-31T20:12:37.907Z,9.70
2019-03-31T20:15:23.498Z,9.08
2019-03-31T20:18:11.519Z,5.40
2019-03-31T20:20:59.911Z,7.70
2019-03-31T20:23:36.854Z,7.50
2019-03-31T20:26:32.515Z,16.67
2019-03-31T20:29:15.528Z,12.55
2019-03-31T20:32:03.920Z,7.80
2019-03-31T20:34:52.267Z,10.72
2019-03-31T20:37:50.637Z,7.83
2019-03-31T20:40:36.269Z,11.10
2019-03-31T20:43:13.957Z,10.18
2019-03-31T20:45:44.539Z,8.75
2019-03-31T20:48:16.876Z,7.83
2019-03-31T20:50:47.226Z,8.80
2019-03-31T20:53:18.970Z,9.58
2019-03-31T20:55:49.359Z,5.72
2019-03-31T20:58:19.800Z,6.25
2019-03-31T21:00:50.198Z,7.12
2019-03-31T21:03:20.606Z,9.18
2019-03-31T21:05:50.943Z,6.60
2019-03-31T21:08:21.765Z,7.12
2019-03-31T21:10:52.139Z,5.85
2019-03-31T21:13:22.492Z,5.03
2019-03-31T21:15:52.811Z,5.00
2019-03-31T21:18:23.282Z,6.92
2019-03-31T21:20:54.653Z,4.67
2019-03-31T21:23:26.232Z,6.55
2019-03-31T21:25:56.755Z,7.37
2019-03-31T21:28:27.096Z,9.78
2019-03-31T21:30:57.432Z,4.62
2019-03-31T21:33:28.615Z,4.58
2019-03-31T21:35:59.042Z,5.17
2019-03-31T21:38:29.577Z,4.00
2019-03-31T21:41:00.007Z,6.75
2019-03-31T21:43:30.382Z,6.10
2019-03-31T21:46:00.862Z,6.62
2019-03-31T21:48:32.179Z,6.10
2019-03-31T21:51:02.532Z,5.35
2019-03-31T21:53:34.669Z,5.20
2019-03-31T21:56:05.141Z,4.83
2019-03-31T21:58:35.504Z,4.37
2019-03-31T22:01:06.403Z,6.60
2019-03-31T22:03:36.990Z,5.05
2019-03-31T22:06:08.186Z,5.53
2019-03-31T22:08:39.558Z,4.35
2019-03-31T22:11:09.867Z,4.40
2019-03-31T22:13:40.242Z,6.90
2019-03-31T22:16:10.687Z,4.50
2019-03-31T22:18:41.126Z,6.00
2019-03-31T22:21:11.559Z,2.55
2019-03-31T22:23:41.912Z,5.40
2019-03-31T22:26:12.154Z,4.33
2019-03-31T22:28:42.596Z,9.98
2019-03-31T22:31:13.052Z,6.33
2019-03-31T22:33:43.487Z,7.00
2019-03-31T22:36:23.137Z,5.10
2019-03-31T22:38:53.829Z,2.83
2019-03-31T22:41:24.143Z,5.90
2019-03-31T22:43:55.583Z,4.30
2019-03-31T22:46:26.421Z,5.67
2019-03-31T22:48:56.820Z,7.65
2019-03-31T22:51:27.149Z,7.08
2019-03-31T22:53:59.882Z,4.12
2019-03-31T22:56:30.390Z,1.45
2019-03-31T22:59:01.968Z,3.58
2019-03-31T23:01:32.580Z,4.65
2019-03-31T23:04:03.015Z,5.72
2019-03-31T23:06:33.421Z,7.62
2019-03-31T23:09:05.433Z,3.85
2019-03-31T23:11:35.930Z,5.70
2019-03-31T23:14:06.342Z,2.83
2019-03-31T23:16:36.871Z,3.45
2019-03-31T23:19:07.263Z,6.95
2019-03-31T23:21:37.862Z,3.60
2019-03-31T23:24:08.243Z,6.75
2019-03-31T23:26:39.042Z,3.77
2019-03-31T23:29:09.542Z,5.78
2019-03-31T23:31:40.002Z,5.80
2019-03-31T23:34:10.499Z,4.03
2019-03-31T23:36:40.923Z,6.87
2019-03-31T23:39:11.581Z,3.77
2019-03-31T23:41:42.011Z,2.37
2019-03-31T23:44:12.730Z,6.58
2019-03-31T23:46:43.086Z,3.70
2019-03-31T23:49:14.046Z,3.30
2019-03-31T23:51:52.184Z,1.90
2019-03-31T23:54:23.211Z,2.17
2019-03-31T23:56:56.119Z,5.25
2019-03-31T23:59:28.103Z,5.95
